Item Display Status Serial CT Sensor

Mooring Depth: 1 m

 

Deployed Sensor

  • Serial Number: 12871
  • NDBC Property Number: 39243
  • Start Date: 2/2/2022 (10:59:24 Z)
  • End Date: Currently Active
Water Temperature [°C]     6 entries per hour
Showing data from 3/27/2022 (15:00:00 Z) to 3/26/2022 (00:00:01 Z)
Previous Next [ Day | 3-Days | 7-Days ]
First Last
Prev [ Day | 3-Days | 7-Days ] Next
First Last

Start Time:     :
End Time:     :     
Time (in GMT) :00 :50 :40 :30 :20 :10
Previous Next [ Day | 3-Days | 7-Days ]
First Last
Prev [ Day | 3-Days | 7-Days ] Next
First Last


123 => good data
MM => data is determined as missing
-- => data not received/configured
Back to Top Back to Top
3/27/2022 15:00 to 14:10 26.586 26.575 26.586 26.569 26.585 26.579
3/27/2022 14:00 to 13:10 26.577 26.589 26.581 26.586 26.582 26.589
3/27/2022 13:00 to 12:10 26.596 26.576 26.596 26.587 26.589 26.591
3/27/2022 12:00 to 11:10 26.583 26.588 26.595 26.585 26.595 26.608
3/27/2022 11:00 to 10:10 26.610 26.613 26.609 26.614 26.615 26.606
3/27/2022 10:00 to 9:10 26.613 26.611 26.608 26.616 26.619 26.626
3/27/2022 09:00 to 8:10 26.614 26.632 26.634 26.631 26.619 26.628
3/27/2022 08:00 to 7:10 26.612 26.629 26.628 26.629 26.633 26.628
3/27/2022 07:00 to 6:10 26.629 26.643 26.637 26.644 26.644 26.649
3/27/2022 06:00 to 5:10 26.647 26.638 26.651 26.645 26.639 26.637
3/27/2022 05:00 to 4:10 26.643 26.656 26.662 26.668 26.662 26.678
3/27/2022 04:00 to 3:10 26.674 26.676 26.683 26.685 26.684 26.691
3/27/2022 03:00 to 2:10 26.681 26.699 26.717 26.720 26.724 26.722
3/27/2022 02:00 to 1:10 26.725 26.732 26.736 26.735 26.759 26.745
3/27/2022 01:00 to 0:10 26.752 26.758 26.773 26.770 26.773 26.757
3/27/2022 00:00 to 23:10 26.761 26.747 26.747 26.734 26.725 26.731
3/26/2022 23:00 to 22:10 26.732 26.709 26.697 26.699 26.720 26.686
3/26/2022 22:00 to 21:10 26.662 26.689 26.678 26.677 26.662 26.654
3/26/2022 21:00 to 20:10 26.644 26.653 26.627 26.599 26.595 26.558
3/26/2022 20:00 to 19:10 26.577 26.583 26.537 26.528 26.534 26.513
3/26/2022 19:00 to 18:10 26.491 26.480 26.476 26.482 26.473 26.473
3/26/2022 18:00 to 17:10 26.468 26.464 26.458 26.452 26.446 26.444
3/26/2022 17:00 to 16:10 26.441 26.441 26.441 26.440 26.437 26.437
3/26/2022 16:00 to 15:10 26.435 26.436 26.434 26.431 26.434 26.438
3/26/2022 15:00 to 14:10 26.440 26.434 26.439 26.426 26.440 26.438
3/26/2022 14:00 to 13:10 26.438 26.441 26.439 26.438 26.439 26.424
3/26/2022 13:00 to 12:10 26.436 26.447 26.435 26.446 26.441 26.449
3/26/2022 12:00 to 11:10 26.448 26.449 26.449 26.450 26.450 26.451
3/26/2022 11:00 to 10:10 26.450 26.448 26.453 26.450 26.453 26.455
3/26/2022 10:00 to 9:10 26.456 26.439 26.451 26.449 26.448 26.459
3/26/2022 09:00 to 8:10 26.461 26.457 26.449 26.451 26.470 26.458
3/26/2022 08:00 to 7:10 26.477 26.477 26.463 26.464 26.476 26.479
3/26/2022 07:00 to 6:10 26.478 26.481 26.474 26.480 26.482 26.489
3/26/2022 06:00 to 5:10 26.496 26.498 26.516 26.507 26.535 26.531
3/26/2022 05:00 to 4:10 26.537 26.535 26.544 26.556 26.561 26.561
3/26/2022 04:00 to 3:10 26.566 26.551 26.568 26.563 26.574 26.576
3/26/2022 03:00 to 2:10 26.590 26.572 26.575 26.572 26.596 26.606
3/26/2022 02:00 to 1:10 26.590 26.608 26.609 26.624 26.630 26.636
3/26/2022 01:00 to 0:10 26.641 26.639 26.649 26.642 26.637 26.652

 

 

 

Conductivity [S/m]     6 entries per hour
Showing data from 3/27/2022 (15:00:00 Z) to 3/26/2022 (00:00:01 Z)
Previous Next [ Day | 3-Days | 7-Days ]
First Last
Prev [ Day | 3-Days | 7-Days ] Next
First Last

Start Time:     :
End Time:     :     
Time (in GMT) :00 :50 :40 :30 :20 :10
Previous Next [ Day | 3-Days | 7-Days ]
First Last
Prev [ Day | 3-Days | 7-Days ] Next
First Last


123 => good data
MM => data is determined as missing
-- => data not received/configured
Back to Top Back to Top
3/27/2022 15:00 to 14:10 5.51764 5.51653 5.51749 5.51583 5.51702 5.51726
3/27/2022 14:00 to 13:10 5.51669 5.51746 5.51666 5.51714 5.51651 5.51744
3/27/2022 13:00 to 12:10 5.51823 5.51637 5.51819 5.51704 5.51729 5.51746
3/27/2022 12:00 to 11:10 5.51662 5.51739 5.51795 5.51688 5.51791 5.51858
3/27/2022 11:00 to 10:10 5.51896 5.51973 5.51933 5.51970 5.51971 5.51901
3/27/2022 10:00 to 9:10 5.51934 5.51928 5.51915 5.51986 5.51997 5.52069
3/27/2022 09:00 to 8:10 5.51935 5.52110 5.52101 5.52102 5.51957 5.52036
3/27/2022 08:00 to 7:10 5.51896 5.52010 5.52029 5.52016 5.52056 5.52001
3/27/2022 07:00 to 6:10 5.52003 5.52165 5.52081 5.52149 5.52169 5.52187
3/27/2022 06:00 to 5:10 5.52154 5.52114 5.52207 5.52141 5.52070 5.52086
3/27/2022 05:00 to 4:10 5.52121 5.52246 5.52293 5.52348 5.52322 5.52454
3/27/2022 04:00 to 3:10 5.52469 5.52461 5.52508 5.52538 5.52505 5.52568
3/27/2022 03:00 to 2:10 5.52464 5.52656 5.52885 5.52941 5.52907 5.52921
3/27/2022 02:00 to 1:10 5.52934 5.52984 5.53032 5.53051 5.53270 5.53123
3/27/2022 01:00 to 0:10 5.53194 5.53284 5.53398 5.53373 5.53344 5.53193
3/27/2022 00:00 to 23:10 5.53198 5.52988 5.52922 5.52732 5.52588 5.52615
3/26/2022 23:00 to 22:10 5.52598 5.52379 5.52172 5.52172 5.52392 5.51880
3/26/2022 22:00 to 21:10 5.51626 5.51844 5.51767 5.51761 5.51607 5.51562
3/26/2022 21:00 to 20:10 5.51435 5.51414 5.51133 5.50740 5.50657 5.50158
3/26/2022 20:00 to 19:10 5.50348 5.50388 5.49814 5.49601 5.49747 5.49508
3/26/2022 19:00 to 18:10 5.49233 5.49110 5.49047 5.49120 5.49047 5.49044
3/26/2022 18:00 to 17:10 5.48948 5.48968 5.48830 5.48775 5.48715 5.48688
3/26/2022 17:00 to 16:10 5.48672 5.48666 5.48662 5.48662 5.48606 5.48604
3/26/2022 16:00 to 15:10 5.48540 5.48553 5.48503 5.48510 5.48523 5.48567
3/26/2022 15:00 to 14:10 5.48574 5.48527 5.48546 5.48442 5.48565 5.48503
3/26/2022 14:00 to 13:10 5.48517 5.48550 5.48534 5.48524 5.48528 5.48400
3/26/2022 13:00 to 12:10 5.48470 5.48581 5.48532 5.48547 5.48489 5.48602
3/26/2022 12:00 to 11:10 5.48577 5.48618 5.48617 5.48620 5.48627 5.48619
3/26/2022 11:00 to 10:10 5.48615 5.48618 5.48648 5.48626 5.48648 5.48644
3/26/2022 10:00 to 9:10 5.48677 5.48523 5.48608 5.48622 5.48614 5.48706
3/26/2022 09:00 to 8:10 5.48738 5.48651 5.48580 5.48647 5.48838 5.48716
3/26/2022 08:00 to 7:10 5.48900 5.48932 5.48767 5.48763 5.48903 5.48900
3/26/2022 07:00 to 6:10 5.48942 5.48958 5.48987 5.49016 5.49070 5.49138
3/26/2022 06:00 to 5:10 5.49237 5.49275 5.49488 5.49457 5.49764 5.49688
3/26/2022 05:00 to 4:10 5.49808 5.49811 5.49891 5.50034 5.50133 5.50106
3/26/2022 04:00 to 3:10 5.50165 5.50009 5.50185 5.50120 5.50203 5.50215
3/26/2022 03:00 to 2:10 5.50379 5.50204 5.50188 5.50157 5.50442 5.50525
3/26/2022 02:00 to 1:10 5.50451 5.50543 5.50541 5.50727 5.50736 5.50815
3/26/2022 01:00 to 0:10 5.50876 5.50860 5.50963 5.50869 5.50794 5.50941

 

 

 

Salinity [psu]     6 entries per hour
Showing data from 3/27/2022 (15:00:00 Z) to 3/26/2022 (00:00:01 Z)
Previous Next [ Day | 3-Days | 7-Days ]
First Last
Prev [ Day | 3-Days | 7-Days ] Next
First Last

Start Time:     :
End Time:     :     
Time (in GMT) :00 :50 :40 :30 :20 :10
Previous Next [ Day | 3-Days | 7-Days ]
First Last
Prev [ Day | 3-Days | 7-Days ] Next
First Last


123 => good data
MM => data is determined as missing
-- => data not received/configured
Back to Top Back to Top
3/27/2022 15:00 to 14:10 35.32 35.32 35.32 35.32 35.31 35.32
3/27/2022 14:00 to 13:10 35.32 35.32 35.31 35.31 35.31 35.31
3/27/2022 13:00 to 12:10 35.32 35.32 35.31 35.31 35.31 35.31
3/27/2022 12:00 to 11:10 35.31 35.31 35.31 35.31 35.31 35.31
3/27/2022 11:00 to 10:10 35.31 35.31 35.31 35.31 35.31 35.31
3/27/2022 10:00 to 9:10 35.31 35.31 35.31 35.31 35.31 35.31
3/27/2022 09:00 to 8:10 35.31 35.31 35.31 35.31 35.31 35.31
3/27/2022 08:00 to 7:10 35.31 35.30 35.31 35.30 35.30 35.30
3/27/2022 07:00 to 6:10 35.30 35.30 35.30 35.30 35.30 35.30
3/27/2022 06:00 to 5:10 35.30 35.30 35.30 35.30 35.30 35.30
3/27/2022 05:00 to 4:10 35.30 35.30 35.30 35.30 35.30 35.30
3/27/2022 04:00 to 3:10 35.30 35.30 35.30 35.30 35.30 35.30
3/27/2022 03:00 to 2:10 35.30 35.30 35.30 35.30 35.30 35.30
3/27/2022 02:00 to 1:10 35.30 35.30 35.29 35.30 35.29 35.29
3/27/2022 01:00 to 0:10 35.29 35.30 35.29 35.29 35.29 35.29
3/27/2022 00:00 to 23:10 35.29 35.28 35.28 35.28 35.27 35.27
3/26/2022 23:00 to 22:10 35.27 35.27 35.26 35.26 35.26 35.25
3/26/2022 22:00 to 21:10 35.25 35.25 35.25 35.25 35.25 35.25
3/26/2022 21:00 to 20:10 35.25 35.24 35.24 35.23 35.23 35.22
3/26/2022 20:00 to 19:10 35.22 35.22 35.22 35.21 35.21 35.21
3/26/2022 19:00 to 18:10 35.21 35.21 35.21 35.21 35.21 35.21
3/26/2022 18:00 to 17:10 35.21 35.21 35.20 35.21 35.21 35.21
3/26/2022 17:00 to 16:10 35.21 35.21 35.21 35.21 35.20 35.20
3/26/2022 16:00 to 15:10 35.20 35.20 35.20 35.20 35.20 35.20
3/26/2022 15:00 to 14:10 35.20 35.20 35.20 35.20 35.20 35.20
3/26/2022 14:00 to 13:10 35.20 35.20 35.20 35.20 35.20 35.20
3/26/2022 13:00 to 12:10 35.20 35.20 35.20 35.19 35.19 35.19
3/26/2022 12:00 to 11:10 35.19 35.20 35.20 35.20 35.20 35.19
3/26/2022 11:00 to 10:10 35.19 35.20 35.20 35.20 35.20 35.19
3/26/2022 10:00 to 9:10 35.19 35.20 35.19 35.20 35.20 35.20
3/26/2022 09:00 to 8:10 35.20 35.19 35.19 35.20 35.20 35.20
3/26/2022 08:00 to 7:10 35.20 35.20 35.20 35.20 35.20 35.19
3/26/2022 07:00 to 6:10 35.20 35.20 35.20 35.20 35.20 35.20
3/26/2022 06:00 to 5:10 35.21 35.21 35.21 35.21 35.21 35.21
3/26/2022 05:00 to 4:10 35.21 35.22 35.22 35.22 35.22 35.22
3/26/2022 04:00 to 3:10 35.22 35.22 35.22 35.22 35.22 35.21
3/26/2022 03:00 to 2:10 35.22 35.22 35.21 35.21 35.22 35.21
3/26/2022 02:00 to 1:10 35.22 35.21 35.21 35.21 35.21 35.21
3/26/2022 01:00 to 0:10 35.21 35.21 35.21 35.21 35.21 35.21